Le Mars, Iowa
Current Conditions -  °F | °C
As of 12:55 PM on Sunday 23 Nov 2014 (Local Time) from KLRJ Reporting Station
Unknown Precip Unknown Precip  
Wind Chill: 35°   Ceiling: 6500
Heat Index: 43°   Visibility: 10mi
Dew Point: 37°   Wind: 18mph
Humidity: 81%   Direction: 330°NNW
Pressure: 29.5"   Gusts: 28mph
Location:  42.79°N, 96.17°W
Report Text: KLRJ 231855Z AUTO 33016G24KT 10SM -UP FEW044 BKN065 06/03 A2950 RMK AO2
Loading
Personal Weather Stations






























Interactive Weather Map New forecast layout! Learn more

10-Day Weather Forecast

Advertisements
Track Severe Weather on mobile